createdAt,value
2022-08-14T00:00:16.277Z,95301
2022-08-14T00:01:25.965Z,95301
2022-08-14T00:02:35.667Z,95300
2022-08-14T00:03:46.311Z,95299
2022-08-14T00:04:55.002Z,95301
2022-08-14T00:06:14.177Z,95296
2022-08-14T00:07:15.463Z,95294
2022-08-14T00:08:43.701Z,95295
2022-08-14T00:09:40.119Z,95295
2022-08-14T00:10:50.675Z,95296
2022-08-14T00:11:56.353Z,95293
2022-08-14T00:13:06.740Z,95292
2022-08-14T00:14:17.197Z,95290
2022-08-14T00:15:24.406Z,95289
2022-08-14T00:16:40.620Z,95290
2022-08-14T00:17:47.179Z,95283
2022-08-14T00:19:05.769Z,95285
2022-08-14T00:20:07.326Z,95285
2022-08-14T00:21:17.028Z,95286
2022-08-14T00:22:44.730Z,95285
2022-08-14T00:23:38.492Z,95286
2022-08-14T00:24:48.075Z,95287
2022-08-14T00:25:59.282Z,95292
2022-08-14T00:27:08.467Z,95289
2022-08-14T00:28:18.132Z,95287
2022-08-14T00:29:27.785Z,95284
2022-08-14T00:30:37.463Z,95283
2022-08-14T00:31:47.139Z,95282
2022-08-14T00:32:57.782Z,95286
2022-08-14T00:34:35.159Z,95286
2022-08-14T00:35:19.338Z,95282
2022-08-14T00:36:34.490Z,95285
2022-08-14T00:37:40.655Z,95281
2022-08-14T00:38:50.333Z,95282
2022-08-14T00:39:59.019Z,95282
2022-08-14T00:41:10.920Z,95284
2022-08-14T00:42:21.529Z,95281
2022-08-14T00:43:31.650Z,95281
2022-08-14T00:44:39.729Z,95277
2022-08-14T00:45:51.554Z,95277
2022-08-14T00:46:58.887Z,95275
2022-08-14T00:48:06.906Z,95272
2022-08-14T00:49:16.587Z,95275
2022-08-14T00:50:27.282Z,95273
2022-08-14T00:51:38.154Z,95274
2022-08-14T00:52:44.724Z,95278
2022-08-14T00:53:54.375Z,95278
2022-08-14T00:55:02.026Z,95280
2022-08-14T00:56:14.239Z,95283
2022-08-14T00:57:21.327Z,95270
2022-08-14T00:58:32.712Z,95270
2022-08-14T00:59:40.649Z,95267
2022-08-14T01:00:51.174Z,95270
2022-08-14T01:01:59.094Z,95271
2022-08-14T01:03:09.704Z,95269
2022-08-14T01:04:37.515Z,95269
2022-08-14T01:05:32.381Z,95270
2022-08-14T01:06:40.629Z,95267
2022-08-14T01:07:50.375Z,95266
2022-08-14T01:09:00.001Z,95262
2022-08-14T01:10:08.681Z,95266
2022-08-14T01:11:18.795Z,95261
2022-08-14T01:12:29.141Z,95261
2022-08-14T01:13:42.426Z,95259
2022-08-14T01:14:49.373Z,95257
2022-08-14T01:16:01.275Z,95259
2022-08-14T01:17:09.684Z,95258
2022-08-14T01:18:20.373Z,95254
2022-08-14T01:19:30.063Z,95254
2022-08-14T01:20:40.623Z,95250
2022-08-14T01:21:52.811Z,95251
2022-08-14T01:22:57.191Z,95252
2022-08-14T01:24:09.871Z,95241
2022-08-14T01:25:18.539Z,95245
2022-08-14T01:26:34.920Z,95240
2022-08-14T01:27:54.013Z,95242
2022-08-14T01:28:56.691Z,95240
2022-08-14T01:30:03.483Z,95240
2022-08-14T01:31:10.924Z,95242
2022-08-14T01:32:22.663Z,95240
2022-08-14T01:33:39.540Z,95244
2022-08-14T01:35:17.069Z,95241
2022-08-14T01:36:02.771Z,95242
2022-08-14T01:37:03.319Z,95241
2022-08-14T01:38:14.107Z,95236
2022-08-14T01:39:24.783Z,95231
2022-08-14T01:40:37.106Z,95230
2022-08-14T01:41:44.232Z,95225
2022-08-14T01:42:53.748Z,95228
2022-08-14T01:44:02.543Z,95222
2022-08-14T01:45:12.207Z,95223
2022-08-14T01:46:24.282Z,95222
2022-08-14T01:47:37.180Z,95219
2022-08-14T01:48:43.185Z,95219
2022-08-14T01:50:00.180Z,95217
2022-08-14T01:51:01.606Z,95216
2022-08-14T01:52:13.360Z,95216
2022-08-14T01:53:22.893Z,95209
2022-08-14T01:54:33.820Z,95207
2022-08-14T01:55:43.299Z,95201
2022-08-14T01:56:55.689Z,95199
2022-08-14T01:58:19.091Z,95199
2022-08-14T01:59:14.688Z,95195
2022-08-14T02:00:21.863Z,95195
2022-08-14T02:01:32.536Z,95195
2022-08-14T02:02:42.162Z,95192
2022-08-14T02:03:53.505Z,95195
2022-08-14T02:05:02.512Z,95191
2022-08-14T02:06:32.822Z,95192
2022-08-14T02:07:27.392Z,95190
2022-08-14T02:08:34.504Z,95187
2022-08-14T02:09:42.172Z,95185
2022-08-14T02:10:52.824Z,95180
2022-08-14T02:12:02.756Z,95171
2022-08-14T02:13:11.202Z,95175
2022-08-14T02:14:30.918Z,95173
2022-08-14T02:15:28.499Z,95168
2022-08-14T02:16:38.248Z,95175
2022-08-14T02:17:47.914Z,95175
2022-08-14T02:18:56.574Z,95178
2022-08-14T02:20:06.425Z,95178
2022-08-14T02:21:15.110Z,95182
2022-08-14T02:22:28.579Z,95179
2022-08-14T02:23:36.230Z,95174
2022-08-14T02:24:44.994Z,95175
2022-08-14T02:25:54.466Z,95173
2022-08-14T02:28:19.874Z,95166
2022-08-14T02:28:19.905Z,95171
2022-08-14T02:29:24.974Z,95170
2022-08-14T02:30:38.160Z,95168
2022-08-14T02:31:44.372Z,95167
2022-08-14T02:32:53.044Z,95165
2022-08-14T02:34:01.681Z,95165
2022-08-14T02:35:12.315Z,95166
2022-08-14T02:37:03.228Z,95169
2022-08-14T02:37:46.480Z,95163
2022-08-14T02:38:41.302Z,95166
2022-08-14T02:39:49.032Z,95166
2022-08-14T02:40:57.677Z,95160
2022-08-14T02:42:12.898Z,95159
2022-08-14T02:43:17.000Z,95156
2022-08-14T02:44:29.634Z,95159
2022-08-14T02:45:38.112Z,95161
2022-08-14T02:46:49.705Z,95160
2022-08-14T02:47:57.672Z,95160
2022-08-14T02:49:07.352Z,95161
2022-08-14T02:50:17.551Z,95161
2022-08-14T02:51:30.217Z,95158
2022-08-14T02:52:55.736Z,95156
2022-08-14T02:53:46.367Z,95159
2022-08-14T02:54:55.678Z,95159
2022-08-14T02:56:31.017Z,95160
2022-08-14T02:57:39.528Z,95162
2022-08-14T02:58:29.386Z,95156
2022-08-14T02:59:35.341Z,95160
2022-08-14T03:00:44.987Z,95161
2022-08-14T03:01:54.604Z,95165
2022-08-14T03:03:07.755Z,95160
2022-08-14T03:04:15.019Z,95158
2022-08-14T03:05:23.726Z,95155
2022-08-14T03:06:34.781Z,95152
2022-08-14T03:07:45.012Z,95151
2022-08-14T03:08:54.694Z,95150
2022-08-14T03:10:27.331Z,95148
2022-08-14T03:11:15.137Z,95154
2022-08-14T03:12:27.182Z,95145
2022-08-14T03:13:35.410Z,95149
2022-08-14T03:14:45.077Z,95146
2022-08-14T03:15:55.340Z,95143
2022-08-14T03:17:03.434Z,95143
2022-08-14T03:18:13.119Z,95140
2022-08-14T03:19:23.815Z,95144
2022-08-14T03:20:32.475Z,95140
2022-08-14T03:21:41.150Z,95145
2022-08-14T03:22:51.097Z,95140
2022-08-14T03:23:59.537Z,95137
2022-08-14T03:25:09.945Z,95140
2022-08-14T03:26:29.602Z,95136
2022-08-14T03:27:35.202Z,95133
2022-08-14T03:28:40.247Z,95132
2022-08-14T03:29:48.929Z,95129
2022-08-14T03:30:57.581Z,95125
2022-08-14T03:32:06.258Z,95122
2022-08-14T03:33:16.934Z,95120
2022-08-14T03:34:45.757Z,95116
2022-08-14T03:35:37.514Z,95119
2022-08-14T03:37:29.123Z,95121
2022-08-14T03:39:11.079Z,95115
2022-08-14T03:39:13.540Z,95118
2022-08-14T03:40:19.206Z,95119
2022-08-14T03:41:27.832Z,95116
2022-08-14T03:42:37.474Z,95114
2022-08-14T03:43:47.123Z,95114
2022-08-14T03:45:18.433Z,95111
2022-08-14T03:46:10.104Z,95103
2022-08-14T03:47:18.246Z,95109
2022-08-14T03:48:29.548Z,95109
2022-08-14T03:49:39.685Z,95108
2022-08-14T03:50:48.329Z,95109
2022-08-14T03:52:00.980Z,95105
2022-08-14T03:53:07.688Z,95105
2022-08-14T03:54:20.504Z,95100
2022-08-14T03:55:26.980Z,95102
2022-08-14T03:56:36.656Z,95104
2022-08-14T03:57:45.346Z,95110
2022-08-14T03:58:54.997Z,95112
2022-08-14T04:00:03.691Z,95109
2022-08-14T04:01:14.459Z,95114
2022-08-14T04:02:32.066Z,95115
2022-08-14T04:03:30.801Z,95116
2022-08-14T04:04:40.458Z,95110
2022-08-14T04:05:51.138Z,95106
2022-08-14T04:07:00.867Z,95101
2022-08-14T04:08:22.562Z,95100
2022-08-14T04:09:20.233Z,95096
2022-08-14T04:10:31.771Z,95099
2022-08-14T04:11:39.027Z,95096
2022-08-14T04:12:51.272Z,95097
2022-08-14T04:13:58.376Z,95099
2022-08-14T04:15:07.080Z,95102
2022-08-14T04:16:16.743Z,95103
2022-08-14T04:17:25.471Z,95103
2022-08-14T04:18:36.127Z,95104
2022-08-14T04:19:45.819Z,95104
2022-08-14T04:20:55.927Z,95110
2022-08-14T04:22:04.436Z,95105
2022-08-14T04:23:15.571Z,95103
2022-08-14T04:24:25.838Z,95099
2022-08-14T04:25:36.213Z,95101
2022-08-14T04:26:44.925Z,95101
2022-08-14T04:28:02.026Z,95098
2022-08-14T04:29:09.348Z,95099
2022-08-14T04:30:29.714Z,95099
2022-08-14T04:32:56.879Z,95100
2022-08-14T04:32:57.146Z,95099
2022-08-14T04:33:47.992Z,95095
2022-08-14T04:34:56.650Z,95094
2022-08-14T04:36:06.375Z,95094
2022-08-14T04:37:17.562Z,95097
2022-08-14T04:38:36.168Z,95099
2022-08-14T04:39:37.422Z,95095
2022-08-14T04:40:46.061Z,95091
2022-08-14T04:41:56.723Z,95088
2022-08-14T04:43:04.402Z,95085
2022-08-14T04:44:26.900Z,95085
2022-08-14T04:45:25.819Z,95083
2022-08-14T04:46:54.895Z,95079
2022-08-14T04:47:46.212Z,95082
2022-08-14T04:49:00.016Z,95087
2022-08-14T04:50:04.584Z,95088
2022-08-14T04:51:14.377Z,95080
2022-08-14T04:52:23.447Z,95083
2022-08-14T04:53:35.215Z,95081
2022-08-14T04:54:42.348Z,95075
2022-08-14T04:55:51.583Z,95080
2022-08-14T04:57:00.685Z,95074
2022-08-14T04:58:08.395Z,95075
2022-08-14T04:59:18.056Z,95067
2022-08-14T05:00:27.720Z,95069
2022-08-14T05:01:39.783Z,95070
2022-08-14T05:02:46.421Z,95077
2022-08-14T05:03:54.785Z,95073
2022-08-14T05:05:03.419Z,95073
2022-08-14T05:06:34.775Z,95079
2022-08-14T05:07:34.070Z,95073
2022-08-14T05:08:50.692Z,95077
2022-08-14T05:09:47.750Z,95074
2022-08-14T05:10:53.746Z,95069
2022-08-14T05:13:01.061Z,95068
2022-08-14T05:13:15.649Z,95066
2022-08-14T05:14:43.135Z,95063
2022-08-14T05:15:35.368Z,95061
2022-08-14T05:16:44.039Z,95057
2022-08-14T05:17:53.907Z,95055
2022-08-14T05:19:17.409Z,95052
2022-08-14T05:20:33.632Z,95056
2022-08-14T05:21:58.493Z,95053
2022-08-14T05:22:36.635Z,95057
2022-08-14T05:23:46.276Z,95060
2022-08-14T05:24:55.965Z,95059
2022-08-14T05:26:04.649Z,95057
2022-08-14T05:27:15.333Z,95057
2022-08-14T05:28:24.019Z,95059
2022-08-14T05:29:32.680Z,95059
2022-08-14T05:30:42.428Z,95060
2022-08-14T05:31:50.558Z,95056
2022-08-14T05:32:59.807Z,95061
2022-08-14T05:34:10.475Z,95055
2022-08-14T05:35:21.791Z,95060
2022-08-14T05:36:31.922Z,95061
2022-08-14T05:37:42.951Z,95064
2022-08-14T05:38:52.248Z,95067
2022-08-14T05:40:02.036Z,95067
2022-08-14T05:41:11.548Z,95068
2022-08-14T05:42:21.427Z,95072
2022-08-14T05:43:33.062Z,95070
2022-08-14T05:44:40.609Z,95062
2022-08-14T05:45:50.297Z,95064
2022-08-14T05:46:57.958Z,95067
2022-08-14T05:48:07.654Z,95063
2022-08-14T05:49:18.315Z,95069
2022-08-14T05:50:29.207Z,95069
2022-08-14T05:51:37.646Z,95080
2022-08-14T05:52:47.349Z,95077
2022-08-14T05:54:00.390Z,95077
2022-08-14T05:55:06.746Z,95076
2022-08-14T05:56:14.411Z,95077
2022-08-14T05:57:23.094Z,95077
2022-08-14T05:58:33.729Z,95078
2022-08-14T05:59:43.466Z,95078
2022-08-14T06:00:53.196Z,95080
2022-08-14T06:02:02.022Z,95081
2022-08-14T06:03:10.501Z,95079
2022-08-14T06:04:20.222Z,95083
2022-08-14T06:05:30.914Z,95083
2022-08-14T06:06:39.562Z,95082
2022-08-14T06:07:50.209Z,95077
2022-08-14T06:08:59.908Z,95076
2022-08-14T06:10:09.563Z,95071
2022-08-14T06:11:23.817Z,95073
2022-08-14T06:12:31.282Z,95071
2022-08-14T06:13:44.825Z,95071
2022-08-14T06:14:51.204Z,95075
2022-08-14T06:15:59.900Z,95078
2022-08-14T06:17:09.613Z,95073
2022-08-14T06:18:20.294Z,95070
2022-08-14T06:19:30.010Z,95076
2022-08-14T06:20:38.674Z,95073
2022-08-14T06:21:50.268Z,95072
2022-08-14T06:22:59.202Z,95076
2022-08-14T06:24:10.301Z,95072
2022-08-14T06:25:16.457Z,95072
2022-08-14T06:26:30.088Z,95075
2022-08-14T06:27:34.741Z,95077
2022-08-14T06:28:45.383Z,95078
2022-08-14T06:29:55.164Z,95081
2022-08-14T06:31:03.783Z,95074
2022-08-14T06:32:37.205Z,95081
2022-08-14T06:33:23.094Z,95077
2022-08-14T06:35:02.058Z,95075
2022-08-14T06:35:44.432Z,95082
2022-08-14T06:36:54.165Z,95081
2022-08-14T06:38:04.404Z,95081
2022-08-14T06:39:14.564Z,95089
2022-08-14T06:40:27.478Z,95089
2022-08-14T06:41:57.393Z,95088
2022-08-14T06:42:47.234Z,95080
2022-08-14T06:43:55.392Z,95087
2022-08-14T06:45:05.230Z,95078
2022-08-14T06:46:17.448Z,95074
2022-08-14T06:47:23.994Z,95079
2022-08-14T06:48:32.673Z,95076
2022-08-14T06:49:45.281Z,95069
2022-08-14T06:50:51.631Z,95071
2022-08-14T06:52:01.708Z,95071
2022-08-14T06:53:10.040Z,95070
2022-08-14T06:54:20.703Z,95070
2022-08-14T06:55:31.366Z,95070
2022-08-14T06:56:39.041Z,95074
2022-08-14T06:57:49.824Z,95071
2022-08-14T06:58:58.478Z,95070
2022-08-14T07:00:08.204Z,95073
2022-08-14T07:01:23.388Z,95068
2022-08-14T07:02:29.508Z,95070
2022-08-14T07:03:40.149Z,95067
2022-08-14T07:04:49.832Z,95073
2022-08-14T07:05:59.487Z,95066
2022-08-14T07:07:09.138Z,95070
2022-08-14T07:08:18.850Z,95069
2022-08-14T07:09:40.811Z,95075
2022-08-14T07:10:38.204Z,95067
2022-08-14T07:11:48.927Z,95067
2022-08-14T07:13:02.230Z,95065
2022-08-14T07:14:06.266Z,95068
2022-08-14T07:15:16.952Z,95065
2022-08-14T07:16:27.377Z,95058
2022-08-14T07:17:36.401Z,95054
2022-08-14T07:18:45.053Z,95053
2022-08-14T07:19:54.718Z,95057
2022-08-14T07:21:04.477Z,95056
2022-08-14T07:22:17.506Z,95050
2022-08-14T07:23:21.981Z,95049
2022-08-14T07:24:32.533Z,95047
2022-08-14T07:25:42.150Z,95049
2022-08-14T07:26:49.884Z,95039
2022-08-14T07:27:58.538Z,95039
2022-08-14T07:29:08.215Z,95040
2022-08-14T07:30:33.617Z,95039
2022-08-14T07:31:29.587Z,95033
2022-08-14T07:32:38.254Z,95036
2022-08-14T07:33:50.023Z,95029
2022-08-14T07:34:56.597Z,95025
2022-08-14T07:36:08.992Z,95025
2022-08-14T07:37:16.905Z,95026
2022-08-14T07:38:25.612Z,95027
2022-08-14T07:39:36.306Z,95017
2022-08-14T07:40:45.896Z,95020
2022-08-14T07:41:55.524Z,95021
2022-08-14T07:43:13.549Z,95020
2022-08-14T07:44:29.872Z,95022
2022-08-14T07:45:25.589Z,95020
2022-08-14T07:46:35.263Z,95020
2022-08-14T07:47:43.920Z,95017
2022-08-14T07:48:53.584Z,95018
2022-08-14T07:50:02.295Z,95017
2022-08-14T07:51:11.957Z,95013
2022-08-14T07:52:30.409Z,95016
2022-08-14T07:53:34.124Z,95011
2022-08-14T07:54:43.911Z,95015
2022-08-14T07:56:00.120Z,95012
2022-08-14T07:57:06.222Z,95015
2022-08-14T07:58:30.569Z,95014
2022-08-14T07:59:26.148Z,95014
2022-08-14T08:00:34.254Z,95007
2022-08-14T08:01:47.851Z,95004
2022-08-14T08:02:55.148Z,95006
2022-08-14T08:04:04.158Z,95004
2022-08-14T08:05:14.844Z,95007
2022-08-14T08:06:23.533Z,95006
2022-08-14T08:07:33.226Z,95002
2022-08-14T08:08:42.869Z,95010
2022-08-14T08:09:53.557Z,95006
2022-08-14T08:11:08.342Z,95011
2022-08-14T08:12:15.657Z,95008
2022-08-14T08:13:24.349Z,95012
2022-08-14T08:14:33.211Z,95013
2022-08-14T08:15:43.875Z,95010
2022-08-14T08:16:53.561Z,95011
2022-08-14T08:18:03.870Z,95013
2022-08-14T08:19:12.927Z,95014
2022-08-14T08:20:21.607Z,95010
2022-08-14T08:21:33.247Z,95012
2022-08-14T08:22:43.275Z,95000
2022-08-14T08:23:53.618Z,95007
2022-08-14T08:25:02.340Z,95007
2022-08-14T08:26:12.996Z,95010
2022-08-14T08:27:21.663Z,95012
2022-08-14T08:28:30.335Z,95013
2022-08-14T08:29:50.456Z,95015
2022-08-14T08:30:59.840Z,95008
2022-08-14T08:32:08.448Z,95012
2022-08-14T08:33:20.102Z,95017
2022-08-14T08:34:29.475Z,95009
2022-08-14T08:35:46.750Z,95013
2022-08-14T08:36:49.868Z,95015
2022-08-14T08:38:01.328Z,95020
2022-08-14T08:39:16.001Z,95019
2022-08-14T08:40:21.015Z,95016
2022-08-14T08:41:31.650Z,95011
2022-08-14T08:42:44.929Z,95016
2022-08-14T08:43:52.564Z,95014
2022-08-14T08:45:01.569Z,95019
2022-08-14T08:46:18.787Z,95016
2022-08-14T08:47:20.828Z,95020
2022-08-14T08:48:31.306Z,95024
2022-08-14T08:49:42.276Z,95021
2022-08-14T08:50:51.999Z,95018
2022-08-14T08:52:01.673Z,95009
2022-08-14T08:53:11.316Z,95014
2022-08-14T08:54:26.514Z,95011
2022-08-14T08:55:31.727Z,95008
2022-08-14T08:56:41.361Z,95006
2022-08-14T08:57:51.056Z,95002
2022-08-14T08:59:00.705Z,95004
2022-08-14T09:00:18.825Z,95003
2022-08-14T09:01:22.127Z,95002
2022-08-14T09:02:30.756Z,94997
2022-08-14T09:03:40.878Z,94993
2022-08-14T09:04:53.365Z,95001
2022-08-14T09:05:58.864Z,95000
2022-08-14T09:07:11.078Z,95000
2022-08-14T09:08:26.444Z,95006
2022-08-14T09:09:30.401Z,95004
2022-08-14T09:10:38.453Z,95007
2022-08-14T09:11:48.140Z,94999
2022-08-14T09:12:56.780Z,94997
2022-08-14T09:14:05.509Z,95003
2022-08-14T09:15:15.119Z,95001
2022-08-14T09:16:26.234Z,95000
2022-08-14T09:17:35.535Z,94992
2022-08-14T09:18:45.182Z,94995
2022-08-14T09:19:54.831Z,94995
2022-08-14T09:21:05.475Z,94993
2022-08-14T09:22:33.258Z,94990
2022-08-14T09:23:27.564Z,94989
2022-08-14T09:24:43.893Z,94984
2022-08-14T09:25:59.275Z,94984
2022-08-14T09:26:56.681Z,94979
2022-08-14T09:28:05.348Z,94974
2022-08-14T09:29:13.032Z,94977
2022-08-14T09:30:31.918Z,94982
2022-08-14T09:31:42.729Z,94979
2022-08-14T09:32:57.779Z,94986
2022-08-14T09:33:56.811Z,94992
2022-08-14T09:35:08.324Z,94992
2022-08-14T09:36:15.288Z,95000
2022-08-14T09:37:25.074Z,94989
2022-08-14T09:38:34.739Z,94998
2022-08-14T09:39:43.595Z,94999
2022-08-14T09:40:53.081Z,94995
2022-08-14T09:42:17.967Z,94997
2022-08-14T09:43:12.411Z,94990
2022-08-14T09:44:23.290Z,94986
2022-08-14T09:45:39.646Z,94987
2022-08-14T09:46:44.165Z,94985
2022-08-14T09:47:54.002Z,94988
2022-08-14T09:49:03.686Z,94983
2022-08-14T09:50:13.375Z,94986
2022-08-14T09:51:23.180Z,94987
2022-08-14T09:52:34.562Z,94983
2022-08-14T09:54:13.678Z,94987
2022-08-14T09:54:54.206Z,94986
2022-08-14T09:56:04.045Z,94997
2022-08-14T09:57:14.713Z,94989
2022-08-14T09:58:24.646Z,94991
2022-08-14T09:59:33.571Z,94995
2022-08-14T10:00:41.755Z,94989
2022-08-14T10:01:52.555Z,94988
2022-08-14T10:03:00.186Z,94987
2022-08-14T10:04:12.348Z,94989
2022-08-14T10:05:20.528Z,94987
2022-08-14T10:06:28.571Z,94979
2022-08-14T10:07:36.873Z,94981
2022-08-14T10:08:50.570Z,94985
2022-08-14T10:09:57.518Z,94976
2022-08-14T10:11:07.026Z,94976
2022-08-14T10:12:18.792Z,94973
2022-08-14T10:13:27.337Z,94970
2022-08-14T10:14:38.048Z,94973
2022-08-14T10:15:48.813Z,94962
2022-08-14T10:16:58.463Z,94963
2022-08-14T10:18:09.120Z,94963
2022-08-14T10:19:18.818Z,94959
2022-08-14T10:20:39.288Z,94959
2022-08-14T10:21:58.150Z,94963
2022-08-14T10:23:11.526Z,94967
2022-08-14T10:24:00.564Z,94964
2022-08-14T10:25:11.210Z,94958
2022-08-14T10:26:22.566Z,94962
2022-08-14T10:27:31.591Z,94962
2022-08-14T10:29:04.141Z,94959
2022-08-14T10:29:51.977Z,94963
2022-08-14T10:31:00.691Z,94966
2022-08-14T10:32:17.520Z,94956
2022-08-14T10:33:21.192Z,94961
2022-08-14T10:34:33.499Z,94952
2022-08-14T10:35:40.536Z,94952
2022-08-14T10:37:02.265Z,94948
2022-08-14T10:38:01.896Z,94950
2022-08-14T10:39:12.196Z,94945
2022-08-14T10:40:38.965Z,94942
2022-08-14T10:41:31.810Z,94942
2022-08-14T10:42:41.646Z,94939
2022-08-14T10:43:50.402Z,94934
2022-08-14T10:45:01.088Z,94942
2022-08-14T10:46:59.347Z,94947
2022-08-14T10:47:38.240Z,94938
2022-08-14T10:48:34.723Z,94942
2022-08-14T10:49:41.731Z,94934
2022-08-14T10:50:51.611Z,94927
2022-08-14T10:52:01.240Z,94931
2022-08-14T10:53:09.929Z,94930
2022-08-14T10:54:35.597Z,94931
2022-08-14T10:55:30.222Z,94926
2022-08-14T10:56:40.980Z,94927
2022-08-14T10:57:51.189Z,94920
2022-08-14T10:58:58.370Z,94918
2022-08-14T11:00:07.055Z,94922
2022-08-14T11:01:16.793Z,94918
2022-08-14T11:02:36.215Z,94915
2022-08-14T11:03:55.543Z,94918
2022-08-14T11:04:46.946Z,94915
2022-08-14T11:05:56.577Z,94909
2022-08-14T11:07:06.279Z,94910
2022-08-14T11:08:14.980Z,94896
2022-08-14T11:09:25.906Z,94904
2022-08-14T11:10:35.347Z,94900
2022-08-14T11:11:45.031Z,94899
2022-08-14T11:12:55.830Z,94897
2022-08-14T11:14:06.482Z,94900
2022-08-14T11:15:15.157Z,94896
2022-08-14T11:16:24.826Z,94892
2022-08-14T11:17:34.520Z,94892
2022-08-14T11:18:45.223Z,94886
2022-08-14T11:19:55.914Z,94881
2022-08-14T11:21:04.559Z,94884
2022-08-14T11:22:15.448Z,94884
2022-08-14T11:23:24.915Z,94886
2022-08-14T11:24:50.249Z,94880
2022-08-14T11:25:53.070Z,94885
2022-08-14T11:26:56.023Z,94883
2022-08-14T11:28:06.733Z,94879
2022-08-14T11:29:17.373Z,94881
2022-08-14T11:30:48.854Z,94879
2022-08-14T11:31:38.857Z,94870
2022-08-14T11:32:47.388Z,94865
2022-08-14T11:33:57.155Z,94868
2022-08-14T11:35:06.817Z,94870
2022-08-14T11:36:17.186Z,94862
2022-08-14T11:37:36.481Z,94863
2022-08-14T11:38:35.977Z,94865
2022-08-14T11:39:45.711Z,94861
2022-08-14T11:40:55.300Z,94856
2022-08-14T11:42:55.147Z,94860
2022-08-14T11:43:14.861Z,94855
2022-08-14T11:44:45.242Z,94847
2022-08-14T11:45:37.054Z,94851
2022-08-14T11:46:44.753Z,94849
2022-08-14T11:48:11.040Z,94849
2022-08-14T11:49:05.134Z,94848
2022-08-14T11:50:13.930Z,94853
2022-08-14T11:51:24.586Z,94852
2022-08-14T11:52:34.244Z,94848
2022-08-14T11:53:45.902Z,94850
2022-08-14T11:54:52.757Z,94847
2022-08-14T11:56:03.864Z,94844
2022-08-14T11:57:13.122Z,94841
2022-08-14T11:58:24.006Z,94836
2022-08-14T11:59:33.920Z,94832
2022-08-14T12:00:45.933Z,94834
2022-08-14T12:01:52.857Z,94837
2022-08-14T12:03:03.506Z,94838
2022-08-14T12:04:21.488Z,94841
2022-08-14T12:05:21.098Z,94834
2022-08-14T12:06:35.856Z,94834
2022-08-14T12:07:42.885Z,94835
2022-08-14T12:08:52.849Z,94834
2022-08-14T12:10:00.636Z,94829
2022-08-14T12:11:10.267Z,94828
2022-08-14T12:12:34.895Z,94829
2022-08-14T12:13:28.604Z,94834
2022-08-14T12:14:40.572Z,94830
2022-08-14T12:15:48.984Z,94833
2022-08-14T12:16:58.669Z,94826
2022-08-14T12:18:11.138Z,94827
2022-08-14T12:19:19.173Z,94824
2022-08-14T12:20:29.767Z,94824
2022-08-14T12:21:38.597Z,94818
2022-08-14T12:22:52.439Z,94816
2022-08-14T12:23:59.018Z,94818
2022-08-14T12:25:10.833Z,94813
2022-08-14T12:26:31.709Z,94809
2022-08-14T12:27:27.972Z,94814
2022-08-14T12:28:59.591Z,94811
2022-08-14T12:29:48.486Z,94813
2022-08-14T12:30:58.208Z,94806
2022-08-14T12:32:08.809Z,94807
2022-08-14T12:33:17.572Z,94802
2022-08-14T12:34:26.321Z,94800
2022-08-14T12:35:36.132Z,94806
2022-08-14T12:36:45.854Z,94804
2022-08-14T12:37:55.612Z,94803
2022-08-14T12:39:04.471Z,94803
2022-08-14T12:40:14.166Z,94799
2022-08-14T12:41:24.227Z,94804
2022-08-14T12:42:36.387Z,94805
2022-08-14T12:43:45.162Z,94800
2022-08-14T12:44:53.838Z,94802
2022-08-14T12:46:04.519Z,94799
2022-08-14T12:47:15.364Z,94802
2022-08-14T12:48:31.803Z,94803
2022-08-14T12:49:35.606Z,94805
2022-08-14T12:50:49.666Z,94806
2022-08-14T12:51:55.071Z,94802
2022-08-14T12:53:14.159Z,94797
2022-08-14T12:54:18.589Z,94798
2022-08-14T12:55:32.440Z,94795
2022-08-14T12:56:37.228Z,94799
2022-08-14T12:57:44.549Z,94799
2022-08-14T12:58:55.113Z,94796
2022-08-14T13:00:22.383Z,94789
2022-08-14T13:01:16.592Z,94786
2022-08-14T13:02:25.624Z,94782
2022-08-14T13:03:33.819Z,94775
2022-08-14T13:04:43.602Z,94778
2022-08-14T13:05:51.332Z,94774
2022-08-14T13:06:59.991Z,94773
2022-08-14T13:08:32.059Z,94776
2022-08-14T13:09:21.291Z,94779
2022-08-14T13:10:46.356Z,94774
2022-08-14T13:11:44.637Z,94774
2022-08-14T13:13:12.343Z,94764
2022-08-14T13:14:03.967Z,94762
2022-08-14T13:15:14.689Z,94763
2022-08-14T13:16:33.922Z,94763
2022-08-14T13:17:38.026Z,94767
2022-08-14T13:18:46.662Z,94766
2022-08-14T13:19:55.412Z,94764
2022-08-14T13:21:04.102Z,94768
2022-08-14T13:22:19.643Z,94759
2022-08-14T13:23:28.588Z,94753
2022-08-14T13:24:34.237Z,94748
2022-08-14T13:25:45.760Z,94746
2022-08-14T13:26:54.609Z,94749
2022-08-14T13:28:04.319Z,94745
2022-08-14T13:29:13.992Z,94752
2022-08-14T13:30:24.269Z,94757
2022-08-14T13:31:34.059Z,94754
2022-08-14T13:32:43.016Z,94761
2022-08-14T13:33:52.711Z,94758
2022-08-14T13:35:02.406Z,94752
2022-08-14T13:36:18.261Z,94747
2022-08-14T13:37:23.725Z,94750
2022-08-14T13:38:32.434Z,94750
2022-08-14T13:39:41.108Z,94746
2022-08-14T13:40:51.761Z,94738
2022-08-14T13:42:00.434Z,94736
2022-08-14T13:43:10.111Z,94734
2022-08-14T13:44:22.090Z,94731
2022-08-14T13:45:34.256Z,94734
2022-08-14T13:46:40.217Z,94730
2022-08-14T13:47:50.859Z,94733
2022-08-14T13:48:59.851Z,94728
2022-08-14T13:50:09.225Z,94731
2022-08-14T13:51:20.042Z,94731
2022-08-14T13:52:48.615Z,94727
2022-08-14T13:53:41.377Z,94729
2022-08-14T13:54:55.358Z,94721
2022-08-14T13:55:59.727Z,94719
2022-08-14T13:57:07.416Z,94720
2022-08-14T13:58:29.993Z,94712
2022-08-14T13:59:37.572Z,94718
2022-08-14T14:00:52.009Z,94712
2022-08-14T14:01:51.647Z,94713
2022-08-14T14:02:58.752Z,94711
2022-08-14T14:04:06.436Z,94712
2022-08-14T14:05:17.100Z,94717
2022-08-14T14:06:25.839Z,94715
2022-08-14T14:07:34.492Z,94711
2022-08-14T14:08:47.093Z,94713
2022-08-14T14:09:55.056Z,94712
2022-08-14T14:11:04.785Z,94714
2022-08-14T14:12:36.779Z,94708
2022-08-14T14:13:25.185Z,94707
2022-08-14T14:14:45.353Z,94704
2022-08-14T14:15:48.795Z,94709
2022-08-14T14:16:56.722Z,94703
2022-08-14T14:18:07.419Z,94702
2022-08-14T14:19:18.098Z,94699
2022-08-14T14:20:34.094Z,94697
2022-08-14T14:21:40.642Z,94701
2022-08-14T14:23:01.070Z,94702
2022-08-14T14:23:59.752Z,94701
2022-08-14T14:25:09.432Z,94710
2022-08-14T14:26:23.020Z,94704
2022-08-14T14:27:40.294Z,94702
2022-08-14T14:28:40.568Z,94695
2022-08-14T14:29:50.583Z,94705
2022-08-14T14:31:01.129Z,94706
2022-08-14T14:32:10.623Z,94712
2022-08-14T14:33:44.375Z,94703
2022-08-14T14:34:31.973Z,94705
2022-08-14T14:35:40.597Z,94698
2022-08-14T14:36:52.516Z,94695
2022-08-14T14:38:00.968Z,94693
2022-08-14T14:39:10.636Z,94695
2022-08-14T14:40:50.945Z,94697
2022-08-14T14:41:37.457Z,94696
2022-08-14T14:42:42.684Z,94692
2022-08-14T14:43:52.388Z,94684
2022-08-14T14:45:02.143Z,94680
2022-08-14T14:46:13.208Z,94682
2022-08-14T14:47:22.638Z,94680
2022-08-14T14:48:32.269Z,94695
2022-08-14T14:49:51.726Z,94687
2022-08-14T14:50:52.665Z,94691
2022-08-14T14:52:01.410Z,94687
2022-08-14T14:53:12.587Z,94684
2022-08-14T14:54:19.756Z,94682
2022-08-14T14:55:30.551Z,94682
2022-08-14T14:56:47.136Z,94684
2022-08-14T14:57:52.005Z,94680
2022-08-14T14:59:00.604Z,94680